Geneseo, Kansas
Current Conditions -  °F | °C
As of 8:53 AM on Wednesday 26 Nov 2014 (Local Time) from KSLN Reporting Station
Clear Clear  
Wind Chill: 33°   Ceiling: Unl
Heat Index: 43°   Visibility: 10mi
Dew Point: 25°   Wind: 26mph
Humidity: 49%   Direction: 320°NW
Pressure: 30.08"   Gusts: NA
Location:  38.52°N, 98.16°W
Report Text: KSLN 261453Z 32023KT 10SM CLR 06/M04 A3008 RMK AO2 PK WND 32027/1453 SLP191 T00611039 51019
Loading
Personal Weather Stations






























Interactive Weather Map New forecast layout! Learn more

10-Day Weather Forecast

Advertisements
Track Severe Weather on mobile